sensor_id;sensor_type;location;lat;lon;timestamp;temperature;humidity
15133;DHT22;7667;51.232;17.110;2023-01-31T00:01:51;2.60;99.90
15133;DHT22;7667;51.232;17.110;2023-01-31T00:04:19;2.60;99.90
15133;DHT22;7667;51.232;17.110;2023-01-31T00:06:46;2.60;99.90
15133;DHT22;7667;51.232;17.110;2023-01-31T00:09:17;2.60;99.90
15133;DHT22;7667;51.232;17.110;2023-01-31T00:11:45;2.60;99.90
15133;DHT22;7667;51.232;17.110;2023-01-31T00:14:18;2.70;99.90
15133;DHT22;7667;51.232;17.110;2023-01-31T00:16:46;2.70;99.90
15133;DHT22;7667;51.232;17.110;2023-01-31T00:19:14;2.80;99.90
15133;DHT22;7667;51.232;17.110;2023-01-31T00:21:42;2.80;99.90
15133;DHT22;7667;51.232;17.110;2023-01-31T00:24:12;2.80;99.90
15133;DHT22;7667;51.232;17.110;2023-01-31T00:26:40;2.80;99.90
15133;DHT22;7667;51.232;17.110;2023-01-31T00:29:08;2.90;99.90
15133;DHT22;7667;51.232;17.110;2023-01-31T00:31:36;2.90;99.90
15133;DHT22;7667;51.232;17.110;2023-01-31T00:34:05;2.90;99.90
15133;DHT22;7667;51.232;17.110;2023-01-31T00:36:33;2.90;99.90
15133;DHT22;7667;51.232;17.110;2023-01-31T00:39:03;2.90;99.90
15133;DHT22;7667;51.232;17.110;2023-01-31T00:41:32;2.90;99.90
15133;DHT22;7667;51.232;17.110;2023-01-31T00:44:00;2.90;99.90
15133;DHT22;7667;51.232;17.110;2023-01-31T00:46:28;2.80;99.90
15133;DHT22;7667;51.232;17.110;2023-01-31T00:48:57;2.70;99.90
15133;DHT22;7667;51.232;17.110;2023-01-31T00:51:25;2.70;99.90
15133;DHT22;7667;51.232;17.110;2023-01-31T00:53:53;2.70;99.90
15133;DHT22;7667;51.232;17.110;2023-01-31T00:56:22;2.60;99.90
15133;DHT22;7667;51.232;17.110;2023-01-31T00:58:51;2.60;99.90
15133;DHT22;7667;51.232;17.110;2023-01-31T01:01:22;2.60;99.90
15133;DHT22;7667;51.232;17.110;2023-01-31T01:03:53;2.60;99.90
15133;DHT22;7667;51.232;17.110;2023-01-31T01:06:21;2.40;99.90
15133;DHT22;7667;51.232;17.110;2023-01-31T01:08:50;2.30;99.90
15133;DHT22;7667;51.232;17.110;2023-01-31T01:11:23;2.20;99.90
15133;DHT22;7667;51.232;17.110;2023-01-31T01:13:52;2.10;99.90
15133;DHT22;7667;51.232;17.110;2023-01-31T01:16:25;2.10;99.90
15133;DHT22;7667;51.232;17.110;2023-01-31T01:19:08;2.10;99.90
15133;DHT22;7667;51.232;17.110;2023-01-31T01:21:39;2.10;99.90
15133;DHT22;7667;51.232;17.110;2023-01-31T01:24:11;2.10;99.90
15133;DHT22;7667;51.232;17.110;2023-01-31T01:26:40;2.10;99.90
15133;DHT22;7667;51.232;17.110;2023-01-31T01:29:08;2.00;99.90
15133;DHT22;7667;51.232;17.110;2023-01-31T01:31:37;1.90;99.90
15133;DHT22;7667;51.232;17.110;2023-01-31T01:34:10;1.90;99.90
15133;DHT22;7667;51.232;17.110;2023-01-31T01:36:39;1.80;99.90
15133;DHT22;7667;51.232;17.110;2023-01-31T01:39:08;1.90;99.90
15133;DHT22;7667;51.232;17.110;2023-01-31T01:41:38;1.90;99.90
15133;DHT22;7667;51.232;17.110;2023-01-31T01:44:44;2.00;99.90
15133;DHT22;7667;51.232;17.110;2023-01-31T01:50:54;2.00;99.90
15133;DHT22;7667;51.232;17.110;2023-01-31T01:53:18;2.10;99.90
15133;DHT22;7667;51.232;17.110;2023-01-31T01:56:02;2.10;99.90
15133;DHT22;7667;51.232;17.110;2023-01-31T01:58:50;2.20;99.90
15133;DHT22;7667;51.232;17.110;2023-01-31T02:01:24;2.20;99.90
15133;DHT22;7667;51.232;17.110;2023-01-31T02:03:53;2.30;99.90
15133;DHT22;7667;51.232;17.110;2023-01-31T02:06:20;2.30;99.90
15133;DHT22;7667;51.232;17.110;2023-01-31T02:08:48;2.30;99.90
15133;DHT22;7667;51.232;17.110;2023-01-31T02:11:27;2.40;99.90
15133;DHT22;7667;51.232;17.110;2023-01-31T02:14:05;2.40;99.90
15133;DHT22;7667;51.232;17.110;2023-01-31T02:16:35;2.40;99.90
15133;DHT22;7667;51.232;17.110;2023-01-31T02:19:07;2.40;99.90
15133;DHT22;7667;51.232;17.110;2023-01-31T02:27:59;2.50;99.90
15133;DHT22;7667;51.232;17.110;2023-01-31T02:31:24;2.50;99.90
15133;DHT22;7667;51.232;17.110;2023-01-31T02:39:42;2.30;99.90
15133;DHT22;7667;51.232;17.110;2023-01-31T02:48:05;1.20;99.90
15133;DHT22;7667;51.232;17.110;2023-01-31T02:50:49;1.20;99.90
15133;DHT22;7667;51.232;17.110;2023-01-31T02:53:46;1.20;99.90
15133;DHT22;7667;51.232;17.110;2023-01-31T02:56:25;1.20;99.90
15133;DHT22;7667;51.232;17.110;2023-01-31T02:59:02;1.20;99.90
15133;DHT22;7667;51.232;17.110;2023-01-31T03:01:36;1.30;99.90
15133;DHT22;7667;51.232;17.110;2023-01-31T03:04:08;1.30;99.90
15133;DHT22;7667;51.232;17.110;2023-01-31T03:09:18;1.20;99.90
15133;DHT22;7667;51.232;17.110;2023-01-31T03:22:00;1.40;99.90
15133;DHT22;7667;51.232;17.110;2023-01-31T03:24:32;1.40;99.90
15133;DHT22;7667;51.232;17.110;2023-01-31T03:27:01;1.30;99.90
15133;DHT22;7667;51.232;17.110;2023-01-31T03:29:32;1.30;99.90
15133;DHT22;7667;51.232;17.110;2023-01-31T03:32:09;1.40;99.90
15133;DHT22;7667;51.232;17.110;2023-01-31T03:34:40;1.50;99.90
15133;DHT22;7667;51.232;17.110;2023-01-31T03:37:24;1.50;99.90
15133;DHT22;7667;51.232;17.110;2023-01-31T03:45:14;1.50;99.90
15133;DHT22;7667;51.232;17.110;2023-01-31T03:47:50;1.50;99.90
15133;DHT22;7667;51.232;17.110;2023-01-31T03:53:39;1.60;99.90
15133;DHT22;7667;51.232;17.110;2023-01-31T03:56:32;1.60;99.90
15133;DHT22;7667;51.232;17.110;2023-01-31T03:59:12;1.60;99.90
15133;DHT22;7667;51.232;17.110;2023-01-31T04:01:44;1.70;99.90
15133;DHT22;7667;51.232;17.110;2023-01-31T04:04:44;1.80;99.90
15133;DHT22;7667;51.232;17.110;2023-01-31T04:07:24;1.80;99.90
15133;DHT22;7667;51.232;17.110;2023-01-31T04:09:52;1.90;99.90
15133;DHT22;7667;51.232;17.110;2023-01-31T04:12:19;2.00;99.90
15133;DHT22;7667;51.232;17.110;2023-01-31T04:14:47;1.90;99.90
15133;DHT22;7667;51.232;17.110;2023-01-31T04:17:14;2.00;99.90
15133;DHT22;7667;51.232;17.110;2023-01-31T04:19:42;2.00;99.90
15133;DHT22;7667;51.232;17.110;2023-01-31T04:22:10;2.10;99.90
15133;DHT22;7667;51.232;17.110;2023-01-31T04:24:37;2.00;99.90
15133;DHT22;7667;51.232;17.110;2023-01-31T04:27:05;2.00;99.90
15133;DHT22;7667;51.232;17.110;2023-01-31T04:29:32;2.10;99.90
15133;DHT22;7667;51.232;17.110;2023-01-31T04:32:00;2.10;99.90
15133;DHT22;7667;51.232;17.110;2023-01-31T04:34:27;2.10;99.90
15133;DHT22;7667;51.232;17.110;2023-01-31T04:36:55;2.10;99.90
15133;DHT22;7667;51.232;17.110;2023-01-31T04:39:22;2.10;99.90
15133;DHT22;7667;51.232;17.110;2023-01-31T04:41:50;2.10;99.90
15133;DHT22;7667;51.232;17.110;2023-01-31T04:44:18;2.20;99.90
15133;DHT22;7667;51.232;17.110;2023-01-31T04:46:45;2.20;99.90
15133;DHT22;7667;51.232;17.110;2023-01-31T04:49:13;2.30;99.90
15133;DHT22;7667;51.232;17.110;2023-01-31T04:51:41;2.20;99.90
15133;DHT22;7667;51.232;17.110;2023-01-31T04:54:09;2.30;99.90
15133;DHT22;7667;51.232;17.110;2023-01-31T04:56:36;2.30;99.90
15133;DHT22;7667;51.232;17.110;2023-01-31T04:59:04;2.30;99.90
15133;DHT22;7667;51.232;17.110;2023-01-31T05:01:32;2.30;99.90
15133;DHT22;7667;51.232;17.110;2023-01-31T05:03:59;2.30;99.90
15133;DHT22;7667;51.232;17.110;2023-01-31T05:06:27;2.40;99.90
15133;DHT22;7667;51.232;17.110;2023-01-31T05:08:54;2.30;99.90
15133;DHT22;7667;51.232;17.110;2023-01-31T05:11:22;2.30;99.90
15133;DHT22;7667;51.232;17.110;2023-01-31T05:13:49;2.40;99.90
15133;DHT22;7667;51.232;17.110;2023-01-31T05:16:17;2.40;99.90
15133;DHT22;7667;51.232;17.110;2023-01-31T05:18:45;2.40;99.90
15133;DHT22;7667;51.232;17.110;2023-01-31T05:21:12;2.40;99.90
15133;DHT22;7667;51.232;17.110;2023-01-31T05:23:40;2.40;99.90
15133;DHT22;7667;51.232;17.110;2023-01-31T05:26:07;2.40;99.90
15133;DHT22;7667;51.232;17.110;2023-01-31T05:28:35;2.30;99.90
15133;DHT22;7667;51.232;17.110;2023-01-31T05:31:05;2.40;99.90
15133;DHT22;7667;51.232;17.110;2023-01-31T05:33:34;2.30;99.90
15133;DHT22;7667;51.232;17.110;2023-01-31T05:36:02;2.30;99.90
15133;DHT22;7667;51.232;17.110;2023-01-31T05:38:30;2.30;99.90
15133;DHT22;7667;51.232;17.110;2023-01-31T05:40:57;2.30;99.90
15133;DHT22;7667;51.232;17.110;2023-01-31T05:43:25;2.30;99.90
15133;DHT22;7667;51.232;17.110;2023-01-31T05:45:52;2.30;99.90
15133;DHT22;7667;51.232;17.110;2023-01-31T05:48:20;2.30;99.90
15133;DHT22;7667;51.232;17.110;2023-01-31T05:50:48;2.30;99.90
15133;DHT22;7667;51.232;17.110;2023-01-31T05:53:16;2.30;99.90
15133;DHT22;7667;51.232;17.110;2023-01-31T05:55:44;2.40;99.90
15133;DHT22;7667;51.232;17.110;2023-01-31T05:58:13;2.30;99.90
15133;DHT22;7667;51.232;17.110;2023-01-31T06:00:41;2.30;99.90
15133;DHT22;7667;51.232;17.110;2023-01-31T06:03:09;2.30;99.90
15133;DHT22;7667;51.232;17.110;2023-01-31T06:05:36;2.30;99.90
15133;DHT22;7667;51.232;17.110;2023-01-31T06:08:06;2.30;99.90
15133;DHT22;7667;51.232;17.110;2023-01-31T06:10:33;2.30;99.90
15133;DHT22;7667;51.232;17.110;2023-01-31T06:13:01;2.30;99.90
15133;DHT22;7667;51.232;17.110;2023-01-31T06:15:29;2.30;99.90
15133;DHT22;7667;51.232;17.110;2023-01-31T06:17:58;2.30;99.90
15133;DHT22;7667;51.232;17.110;2023-01-31T06:20:25;2.30;99.90
15133;DHT22;7667;51.232;17.110;2023-01-31T06:22:53;2.30;99.90
15133;DHT22;7667;51.232;17.110;2023-01-31T06:25:20;2.40;99.90
15133;DHT22;7667;51.232;17.110;2023-01-31T06:27:48;2.40;99.90
15133;DHT22;7667;51.232;17.110;2023-01-31T06:30:16;2.30;99.90
15133;DHT22;7667;51.232;17.110;2023-01-31T06:32:43;2.40;99.90
15133;DHT22;7667;51.232;17.110;2023-01-31T06:35:11;2.40;99.90
15133;DHT22;7667;51.232;17.110;2023-01-31T06:37:38;2.40;99.90
15133;DHT22;7667;51.232;17.110;2023-01-31T06:40:06;2.40;99.90
15133;DHT22;7667;51.232;17.110;2023-01-31T06:42:34;2.40;99.90
15133;DHT22;7667;51.232;17.110;2023-01-31T06:45:01;2.30;99.90
15133;DHT22;7667;51.232;17.110;2023-01-31T06:47:29;2.30;99.90
15133;DHT22;7667;51.232;17.110;2023-01-31T06:49:57;2.30;99.90
15133;DHT22;7667;51.232;17.110;2023-01-31T06:52:25;2.30;99.90
15133;DHT22;7667;51.232;17.110;2023-01-31T06:54:52;2.30;99.90
15133;DHT22;7667;51.232;17.110;2023-01-31T06:57:20;2.30;99.90
15133;DHT22;7667;51.232;17.110;2023-01-31T06:59:47;2.30;99.90
15133;DHT22;7667;51.232;17.110;2023-01-31T07:02:15;2.30;99.90
15133;DHT22;7667;51.232;17.110;2023-01-31T07:04:42;2.30;99.90
15133;DHT22;7667;51.232;17.110;2023-01-31T07:07:10;2.30;99.90
15133;DHT22;7667;51.232;17.110;2023-01-31T07:09:38;2.30;99.90
15133;DHT22;7667;51.232;17.110;2023-01-31T07:12:05;2.40;99.90
15133;DHT22;7667;51.232;17.110;2023-01-31T07:14:33;2.40;99.90
15133;DHT22;7667;51.232;17.110;2023-01-31T07:17:01;2.30;99.90
15133;DHT22;7667;51.232;17.110;2023-01-31T07:19:28;2.30;99.90
15133;DHT22;7667;51.232;17.110;2023-01-31T07:21:56;2.30;99.90
15133;DHT22;7667;51.232;17.110;2023-01-31T07:24:23;2.40;99.90
15133;DHT22;7667;51.232;17.110;2023-01-31T07:26:51;2.40;99.90
15133;DHT22;7667;51.232;17.110;2023-01-31T07:29:20;2.40;99.90
15133;DHT22;7667;51.232;17.110;2023-01-31T07:31:47;2.40;99.90
15133;DHT22;7667;51.232;17.110;2023-01-31T07:34:15;2.40;99.90
15133;DHT22;7667;51.232;17.110;2023-01-31T07:36:43;2.40;99.90
15133;DHT22;7667;51.232;17.110;2023-01-31T07:39:10;2.40;99.90
15133;DHT22;7667;51.232;17.110;2023-01-31T07:41:39;2.40;99.90
15133;DHT22;7667;51.232;17.110;2023-01-31T07:44:06;2.40;99.90
15133;DHT22;7667;51.232;17.110;2023-01-31T07:46:36;2.40;99.90
15133;DHT22;7667;51.232;17.110;2023-01-31T07:49:04;2.50;99.90
15133;DHT22;7667;51.232;17.110;2023-01-31T07:51:31;2.50;99.90
15133;DHT22;7667;51.232;17.110;2023-01-31T07:53:59;2.50;99.90
15133;DHT22;7667;51.232;17.110;2023-01-31T07:56:27;2.50;99.90
15133;DHT22;7667;51.232;17.110;2023-01-31T07:58:54;2.60;99.90
15133;DHT22;7667;51.232;17.110;2023-01-31T08:01:24;2.50;99.90
15133;DHT22;7667;51.232;17.110;2023-01-31T08:04:13;2.60;99.90
15133;DHT22;7667;51.232;17.110;2023-01-31T08:06:48;2.70;99.90
15133;DHT22;7667;51.232;17.110;2023-01-31T08:09:17;2.60;99.90
15133;DHT22;7667;51.232;17.110;2023-01-31T08:11:44;2.60;99.90
15133;DHT22;7667;51.232;17.110;2023-01-31T08:14:13;2.60;99.90
15133;DHT22;7667;51.232;17.110;2023-01-31T08:16:41;2.70;99.90
15133;DHT22;7667;51.232;17.110;2023-01-31T08:19:09;2.80;99.90
15133;DHT22;7667;51.232;17.110;2023-01-31T08:21:37;2.80;99.90
15133;DHT22;7667;51.232;17.110;2023-01-31T08:24:04;2.80;99.90
15133;DHT22;7667;51.232;17.110;2023-01-31T08:26:32;2.90;99.90
15133;DHT22;7667;51.232;17.110;2023-01-31T08:29:00;2.90;99.90
15133;DHT22;7667;51.232;17.110;2023-01-31T08:31:28;2.80;99.90
15133;DHT22;7667;51.232;17.110;2023-01-31T08:33:55;2.80;99.90
15133;DHT22;7667;51.232;17.110;2023-01-31T08:36:25;2.90;99.90
15133;DHT22;7667;51.232;17.110;2023-01-31T08:38:55;2.80;99.90
15133;DHT22;7667;51.232;17.110;2023-01-31T08:41:24;2.80;99.90
15133;DHT22;7667;51.232;17.110;2023-01-31T08:43:53;2.80;99.90
15133;DHT22;7667;51.232;17.110;2023-01-31T08:46:29;2.80;99.90
15133;DHT22;7667;51.232;17.110;2023-01-31T08:49:02;2.80;99.90
15133;DHT22;7667;51.232;17.110;2023-01-31T08:51:31;2.80;99.90
15133;DHT22;7667;51.232;17.110;2023-01-31T08:53:59;2.90;99.90
15133;DHT22;7667;51.232;17.110;2023-01-31T08:56:26;2.90;99.90
15133;DHT22;7667;51.232;17.110;2023-01-31T08:58:55;2.80;99.90
15133;DHT22;7667;51.232;17.110;2023-01-31T09:01:23;2.90;99.90
15133;DHT22;7667;51.232;17.110;2023-01-31T09:03:51;2.90;99.90
15133;DHT22;7667;51.232;17.110;2023-01-31T09:06:24;3.00;99.90
15133;DHT22;7667;51.232;17.110;2023-01-31T09:08:57;3.10;99.90
15133;DHT22;7667;51.232;17.110;2023-01-31T09:11:27;3.10;99.90
15133;DHT22;7667;51.232;17.110;2023-01-31T09:13:56;3.10;99.90
15133;DHT22;7667;51.232;17.110;2023-01-31T09:16:24;3.20;99.90
15133;DHT22;7667;51.232;17.110;2023-01-31T09:18:53;3.10;99.90
15133;DHT22;7667;51.232;17.110;2023-01-31T09:21:23;3.30;99.90
15133;DHT22;7667;51.232;17.110;2023-01-31T09:23:59;3.30;99.90
15133;DHT22;7667;51.232;17.110;2023-01-31T09:26:30;3.30;99.90
15133;DHT22;7667;51.232;17.110;2023-01-31T09:28:59;3.20;99.90
15133;DHT22;7667;51.232;17.110;2023-01-31T09:31:27;3.20;99.90
15133;DHT22;7667;51.232;17.110;2023-01-31T09:33:56;3.20;99.90
15133;DHT22;7667;51.232;17.110;2023-01-31T09:36:24;3.20;99.90
15133;DHT22;7667;51.232;17.110;2023-01-31T09:38:55;3.10;99.90
15133;DHT22;7667;51.232;17.110;2023-01-31T09:44:25;3.30;99.90
15133;DHT22;7667;51.232;17.110;2023-01-31T09:47:19;3.40;99.90
15133;DHT22;7667;51.232;17.110;2023-01-31T09:49:53;3.30;99.90
15133;DHT22;7667;51.232;17.110;2023-01-31T09:52:27;3.40;99.90
15133;DHT22;7667;51.232;17.110;2023-01-31T09:54:58;3.40;99.90
15133;DHT22;7667;51.232;17.110;2023-01-31T09:57:47;3.30;99.90
15133;DHT22;7667;51.232;17.110;2023-01-31T10:09:45;3.90;99.90
15133;DHT22;7667;51.232;17.110;2023-01-31T10:15:17;4.10;99.90
15133;DHT22;7667;51.232;17.110;2023-01-31T10:17:58;4.00;99.90
15133;DHT22;7667;51.232;17.110;2023-01-31T10:20:34;4.10;99.90
15133;DHT22;7667;51.232;17.110;2023-01-31T10:25:53;3.80;99.90
15133;DHT22;7667;51.232;17.110;2023-01-31T10:28:29;3.90;99.90
15133;DHT22;7667;51.232;17.110;2023-01-31T10:35:01;3.90;99.90
15133;DHT22;7667;51.232;17.110;2023-01-31T10:37:46;4.00;99.90
15133;DHT22;7667;51.232;17.110;2023-01-31T10:40:34;3.80;99.90
15133;DHT22;7667;51.232;17.110;2023-01-31T10:43:26;3.70;99.90
15133;DHT22;7667;51.232;17.110;2023-01-31T10:45:59;3.40;99.90
15133;DHT22;7667;51.232;17.110;2023-01-31T10:48:28;3.30;99.90
15133;DHT22;7667;51.232;17.110;2023-01-31T10:56:44;3.10;99.90
15133;DHT22;7667;51.232;17.110;2023-01-31T11:02:01;3.00;99.90
15133;DHT22;7667;51.232;17.110;2023-01-31T11:04:33;3.20;99.90
15133;DHT22;7667;51.232;17.110;2023-01-31T11:07:04;3.20;99.90
15133;DHT22;7667;51.232;17.110;2023-01-31T11:09:39;3.40;99.90
15133;DHT22;7667;51.232;17.110;2023-01-31T11:12:07;3.60;99.90
15133;DHT22;7667;51.232;17.110;2023-01-31T11:14:35;3.60;99.90
15133;DHT22;7667;51.232;17.110;2023-01-31T11:17:12;3.50;99.90
15133;DHT22;7667;51.232;17.110;2023-01-31T11:19:51;3.50;99.90
15133;DHT22;7667;51.232;17.110;2023-01-31T11:24:54;3.60;99.90
15133;DHT22;7667;51.232;17.110;2023-01-31T11:27:36;3.60;99.90
15133;DHT22;7667;51.232;17.110;2023-01-31T11:33:44;3.60;99.90
15133;DHT22;7667;51.232;17.110;2023-01-31T11:36:17;3.50;99.90
15133;DHT22;7667;51.232;17.110;2023-01-31T11:38:53;3.30;99.90
15133;DHT22;7667;51.232;17.110;2023-01-31T11:41:36;3.30;99.90
15133;DHT22;7667;51.232;17.110;2023-01-31T11:44:19;3.30;99.90
15133;DHT22;7667;51.232;17.110;2023-01-31T11:46:57;3.30;99.90
15133;DHT22;7667;51.232;17.110;2023-01-31T11:50:02;3.50;99.90
15133;DHT22;7667;51.232;17.110;2023-01-31T11:52:29;3.60;99.90
15133;DHT22;7667;51.232;17.110;2023-01-31T11:55:06;3.70;99.90
15133;DHT22;7667;51.232;17.110;2023-01-31T11:57:36;3.80;99.90
15133;DHT22;7667;51.232;17.110;2023-01-31T12:00:18;3.90;99.90
15133;DHT22;7667;51.232;17.110;2023-01-31T12:03:05;3.90;99.90
15133;DHT22;7667;51.232;17.110;2023-01-31T12:05:41;4.00;99.90
15133;DHT22;7667;51.232;17.110;2023-01-31T12:08:40;4.00;99.90
15133;DHT22;7667;51.232;17.110;2023-01-31T12:11:28;3.90;99.90
15133;DHT22;7667;51.232;17.110;2023-01-31T12:14:08;3.90;99.90
15133;DHT22;7667;51.232;17.110;2023-01-31T12:16:42;3.90;99.90
15133;DHT22;7667;51.232;17.110;2023-01-31T12:19:17;3.80;99.90
15133;DHT22;7667;51.232;17.110;2023-01-31T12:22:47;3.60;99.90
15133;DHT22;7667;51.232;17.110;2023-01-31T12:25:27;3.30;99.90
15133;DHT22;7667;51.232;17.110;2023-01-31T12:28:29;3.00;99.90
15133;DHT22;7667;51.232;17.110;2023-01-31T12:38:02;2.70;99.90
15133;DHT22;7667;51.232;17.110;2023-01-31T12:40:59;2.70;99.90
15133;DHT22;7667;51.232;17.110;2023-01-31T12:52:50;2.70;99.90
15133;DHT22;7667;51.232;17.110;2023-01-31T12:58:46;2.80;99.90
15133;DHT22;7667;51.232;17.110;2023-01-31T13:04:47;3.00;99.90
15133;DHT22;7667;51.232;17.110;2023-01-31T13:12:56;3.10;99.90
15133;DHT22;7667;51.232;17.110;2023-01-31T13:15:46;3.00;99.90
15133;DHT22;7667;51.232;17.110;2023-01-31T13:18:16;3.00;99.90
15133;DHT22;7667;51.232;17.110;2023-01-31T13:21:19;2.90;99.90
15133;DHT22;7667;51.232;17.110;2023-01-31T13:24:02;2.90;99.90
15133;DHT22;7667;51.232;17.110;2023-01-31T13:26:39;2.80;99.90
15133;DHT22;7667;51.232;17.110;2023-01-31T13:29:20;2.80;99.90
15133;DHT22;7667;51.232;17.110;2023-01-31T13:31:53;2.80;99.90
15133;DHT22;7667;51.232;17.110;2023-01-31T13:34:33;2.80;99.90
15133;DHT22;7667;51.232;17.110;2023-01-31T13:37:13;2.90;99.90
15133;DHT22;7667;51.232;17.110;2023-01-31T13:39:48;2.90;99.90
15133;DHT22;7667;51.232;17.110;2023-01-31T13:42:18;2.90;99.90
15133;DHT22;7667;51.232;17.110;2023-01-31T13:44:46;2.90;99.90
15133;DHT22;7667;51.232;17.110;2023-01-31T13:48:23;3.00;99.90
15133;DHT22;7667;51.232;17.110;2023-01-31T13:50:38;3.00;99.90
15133;DHT22;7667;51.232;17.110;2023-01-31T13:53:23;2.90;99.90
15133;DHT22;7667;51.232;17.110;2023-01-31T13:55:54;2.90;99.90
15133;DHT22;7667;51.232;17.110;2023-01-31T13:58:28;3.00;99.90
15133;DHT22;7667;51.232;17.110;2023-01-31T14:09:34;2.90;99.90
15133;DHT22;7667;51.232;17.110;2023-01-31T14:14:50;2.80;99.90
15133;DHT22;7667;51.232;17.110;2023-01-31T14:20:05;2.80;99.90
15133;DHT22;7667;51.232;17.110;2023-01-31T14:22:37;2.80;99.90
15133;DHT22;7667;51.232;17.110;2023-01-31T14:25:11;2.80;99.90
15133;DHT22;7667;51.232;17.110;2023-01-31T14:27:42;2.70;99.90
15133;DHT22;7667;51.232;17.110;2023-01-31T14:36:14;2.50;99.90
15133;DHT22;7667;51.232;17.110;2023-01-31T14:39:13;2.40;99.90
15133;DHT22;7667;51.232;17.110;2023-01-31T14:56:54;2.20;99.90
15133;DHT22;7667;51.232;17.110;2023-01-31T14:59:38;2.20;99.90
15133;DHT22;7667;51.232;17.110;2023-01-31T15:05:06;2.20;99.90
15133;DHT22;7667;51.232;17.110;2023-01-31T15:10:53;2.20;99.90
15133;DHT22;7667;51.232;17.110;2023-01-31T15:19:17;2.20;99.90
15133;DHT22;7667;51.232;17.110;2023-01-31T15:21:52;2.20;99.90
15133;DHT22;7667;51.232;17.110;2023-01-31T15:24:55;2.20;99.90
15133;DHT22;7667;51.232;17.110;2023-01-31T15:27:26;2.20;99.90
15133;DHT22;7667;51.232;17.110;2023-01-31T15:32:30;2.30;99.90
15133;DHT22;7667;51.232;17.110;2023-01-31T15:35:14;2.30;99.90
15133;DHT22;7667;51.232;17.110;2023-01-31T15:37:43;2.30;99.90
15133;DHT22;7667;51.232;17.110;2023-01-31T15:40:21;2.30;99.90
15133;DHT22;7667;51.232;17.110;2023-01-31T15:42:51;2.30;99.90
15133;DHT22;7667;51.232;17.110;2023-01-31T15:50:33;2.30;99.90
15133;DHT22;7667;51.232;17.110;2023-01-31T15:53:06;2.30;99.90
15133;DHT22;7667;51.232;17.110;2023-01-31T15:55:40;2.30;99.90
15133;DHT22;7667;51.232;17.110;2023-01-31T15:58:17;2.30;99.90
15133;DHT22;7667;51.232;17.110;2023-01-31T16:00:57;2.30;99.90
15133;DHT22;7667;51.232;17.110;2023-01-31T16:03:36;2.30;99.90
15133;DHT22;7667;51.232;17.110;2023-01-31T16:06:25;2.30;99.90
15133;DHT22;7667;51.232;17.110;2023-01-31T16:08:57;2.30;99.90
15133;DHT22;7667;51.232;17.110;2023-01-31T16:11:29;2.30;99.90
15133;DHT22;7667;51.232;17.110;2023-01-31T16:14:03;2.30;99.90
15133;DHT22;7667;51.232;17.110;2023-01-31T16:16:35;2.30;99.90
15133;DHT22;7667;51.232;17.110;2023-01-31T16:19:03;2.30;99.90
15133;DHT22;7667;51.232;17.110;2023-01-31T16:21:42;2.30;99.90
15133;DHT22;7667;51.232;17.110;2023-01-31T16:24:15;2.30;99.90
15133;DHT22;7667;51.232;17.110;2023-01-31T16:29:40;2.30;99.90
15133;DHT22;7667;51.232;17.110;2023-01-31T16:35:19;2.40;99.90
15133;DHT22;7667;51.232;17.110;2023-01-31T16:40:36;2.40;99.90
15133;DHT22;7667;51.232;17.110;2023-01-31T16:43:26;2.50;99.90
15133;DHT22;7667;51.232;17.110;2023-01-31T16:46:00;2.50;99.90
15133;DHT22;7667;51.232;17.110;2023-01-31T16:48:34;2.50;99.90
15133;DHT22;7667;51.232;17.110;2023-01-31T16:57:04;2.50;99.90
15133;DHT22;7667;51.232;17.110;2023-01-31T17:02:27;2.50;99.90
15133;DHT22;7667;51.232;17.110;2023-01-31T17:05:00;2.50;99.90
15133;DHT22;7667;51.232;17.110;2023-01-31T17:07:36;2.50;99.90
15133;DHT22;7667;51.232;17.110;2023-01-31T17:10:06;2.60;99.90
15133;DHT22;7667;51.232;17.110;2023-01-31T17:12:37;2.60;99.90
15133;DHT22;7667;51.232;17.110;2023-01-31T17:15:17;2.60;99.90
15133;DHT22;7667;51.232;17.110;2023-01-31T17:17:46;2.60;99.90
15133;DHT22;7667;51.232;17.110;2023-01-31T17:20:16;2.70;99.90
15133;DHT22;7667;51.232;17.110;2023-01-31T17:22:45;2.70;99.90
15133;DHT22;7667;51.232;17.110;2023-01-31T17:25:33;2.80;99.90
15133;DHT22;7667;51.232;17.110;2023-01-31T17:28:03;2.80;99.90
15133;DHT22;7667;51.232;17.110;2023-01-31T17:30:32;2.80;99.90
15133;DHT22;7667;51.232;17.110;2023-01-31T17:33:00;2.80;99.90
15133;DHT22;7667;51.232;17.110;2023-01-31T17:35:35;2.80;99.90
15133;DHT22;7667;51.232;17.110;2023-01-31T17:38:05;2.80;99.90
15133;DHT22;7667;51.232;17.110;2023-01-31T17:40:33;2.80;99.90
15133;DHT22;7667;51.232;17.110;2023-01-31T17:43:03;2.90;99.90
15133;DHT22;7667;51.232;17.110;2023-01-31T17:45:31;2.90;99.90
15133;DHT22;7667;51.232;17.110;2023-01-31T17:47:59;3.00;99.90
15133;DHT22;7667;51.232;17.110;2023-01-31T17:50:27;2.90;99.90
15133;DHT22;7667;51.232;17.110;2023-01-31T17:52:55;2.90;99.90
15133;DHT22;7667;51.232;17.110;2023-01-31T17:55:23;2.80;99.90
15133;DHT22;7667;51.232;17.110;2023-01-31T17:57:51;2.80;99.90
15133;DHT22;7667;51.232;17.110;2023-01-31T18:00:19;2.80;99.90
15133;DHT22;7667;51.232;17.110;2023-01-31T18:02:47;2.80;99.90
15133;DHT22;7667;51.232;17.110;2023-01-31T18:05:15;2.70;99.90
15133;DHT22;7667;51.232;17.110;2023-01-31T18:07:55;2.70;99.90
15133;DHT22;7667;51.232;17.110;2023-01-31T18:10:25;2.70;99.90
15133;DHT22;7667;51.232;17.110;2023-01-31T18:12:52;2.60;99.90
15133;DHT22;7667;51.232;17.110;2023-01-31T18:15:20;2.60;99.90
15133;DHT22;7667;51.232;17.110;2023-01-31T18:17:48;2.60;99.90
15133;DHT22;7667;51.232;17.110;2023-01-31T18:20:15;2.60;99.90
15133;DHT22;7667;51.232;17.110;2023-01-31T18:22:45;2.60;99.90
15133;DHT22;7667;51.232;17.110;2023-01-31T18:25:13;2.60;99.90
15133;DHT22;7667;51.232;17.110;2023-01-31T18:27:40;2.60;99.90
15133;DHT22;7667;51.232;17.110;2023-01-31T18:30:08;2.60;99.90
15133;DHT22;7667;51.232;17.110;2023-01-31T18:32:36;2.60;99.90
15133;DHT22;7667;51.232;17.110;2023-01-31T18:35:05;2.70;99.90
15133;DHT22;7667;51.232;17.110;2023-01-31T18:37:32;2.70;99.90
15133;DHT22;7667;51.232;17.110;2023-01-31T18:40:00;2.60;99.90
15133;DHT22;7667;51.232;17.110;2023-01-31T18:42:27;2.70;99.90
15133;DHT22;7667;51.232;17.110;2023-01-31T18:44:55;2.70;99.90
15133;DHT22;7667;51.232;17.110;2023-01-31T18:47:22;2.70;99.90
15133;DHT22;7667;51.232;17.110;2023-01-31T18:49:50;2.70;99.90
15133;DHT22;7667;51.232;17.110;2023-01-31T18:52:17;2.70;99.90
15133;DHT22;7667;51.232;17.110;2023-01-31T18:54:45;2.70;99.90
15133;DHT22;7667;51.232;17.110;2023-01-31T18:57:15;2.70;99.90
15133;DHT22;7667;51.232;17.110;2023-01-31T18:59:42;2.80;99.90
15133;DHT22;7667;51.232;17.110;2023-01-31T19:02:10;2.80;99.90
15133;DHT22;7667;51.232;17.110;2023-01-31T19:04:38;2.70;99.90
15133;DHT22;7667;51.232;17.110;2023-01-31T19:07:05;2.70;99.90
15133;DHT22;7667;51.232;17.110;2023-01-31T19:09:33;2.70;99.90
15133;DHT22;7667;51.232;17.110;2023-01-31T19:12:01;2.70;99.90
15133;DHT22;7667;51.232;17.110;2023-01-31T19:14:29;2.70;99.90
15133;DHT22;7667;51.232;17.110;2023-01-31T19:16:56;2.70;99.90
15133;DHT22;7667;51.232;17.110;2023-01-31T19:19:24;2.70;99.90